Buoy 17652

sailwx.info

Track history (hours):
 
Tides and Currents Weather Stations Pressure Air Temp Water Temp Dewpoint Dewpoint Depression Visibility Wind Speed Wind Dir Waves Ship Positions

Drifting buoy 17652

Last reported at 2017-Nov-19 19:00 UTC. Time now 2017-Nov-19 21:55 UTC.
Position S 36°25' E 062°04'.

Barometer 1010.1 mb
Water temperature 17.3 ° C

Date/timePositionNaut miles runAvg speedWind from/ knotsBaromVisibWave heightAir tempDewpointWater temp
2017-Nov-19 19:00S 36°25' E 062°04'0 0.5 1010.1 17.3
2017-Nov-19 18:00S 36°25' E 062°05'2 1.5 1010.3 17.4
2017-Nov-19 17:00S 36°23' E 062°04'1 0.6 1010.4 17.4
2017-Nov-19 15:00S 36°23' E 062°02'0 0.0 1010.1 17.4
2017-Nov-19 14:00S 36°23' E 062°02'1 0.8 1010.0 17.4
2017-Nov-19 13:00S 36°22' E 062°02'0 0.0 1009.9 17.4
2017-Nov-19 12:00S 36°22' E 062°02'3 3.4 1010.0 17.5
2017-Nov-19 11:00S 36°23' E 061°58'1 0.2 1010.1 17.5
2017-Nov-19 05:00S 36°23' E 061°56'2 1.6 1011.6 17.0
2017-Nov-19 04:00S 36°22' E 061°55'1 0.6 1011.5 17.0
2017-Nov-19 03:00S 36°22' E 061°55'2 1.5 1011.3 17.0
2017-Nov-19 02:00S 36°20' E 061°53'2 1.9 1011.2 17.0
2017-Nov-19 01:00S 36°19' E 061°53'0 0.0 1011.1 17.0
2017-Nov-18 23:00S 36°19' E 061°53'1 1.3 1011.8 17.1
2017-Nov-18 22:00S 36°17' E 061°52'2 0.5 1012.4 17.2
2017-Nov-18 18:00S 36°16' E 061°51'1 0.8 1015.3 17.4
2017-Nov-18 17:00S 36°15' E 061°50'0 0.0 1015.6 17.4
2017-Nov-18 16:00S 36°15' E 061°50'1 0.6 1015.7 17.4
2017-Nov-18 14:00S 36°14' E 061°50'1 1.1 1015.6 17.6
2017-Nov-18 13:00S 36°13' E 061°49'1 0.8 1016.0 17.6
2017-Nov-18 12:00S 36°13' E 061°49'0 0.0 1015.8 17.6
2017-Nov-18 11:00S 36°13' E 061°49'2 1.9 1016.1 17.6
2017-Nov-18 10:00S 36°11' E 061°49'0 0.1 1016.6 17.6
2017-Nov-18 06:00S 36°11' E 061°49'0 0.5 1017.6 17.2
2017-Nov-18 05:00S 36°11' E 061°49'1 0.8 1017.7 17.1
2017-Nov-18 04:00S 36°10' E 061°48'1 0.6 1017.8 17.1
2017-Nov-18 03:00S 36°11' E 061°48'0 0.0 1017.6 17.1
2017-Nov-18 02:00S 36°11' E 061°48'1 0.8 1017.7 17.1
2017-Nov-18 01:00S 36°10' E 061°47'0 0.0 1017.3 17.1
2017-Nov-18 00:00S 36°10' E 061°47'0 0.5 1017.3 17.1
2017-Nov-17 23:00S 36°10' E 061°47'1 0.8 1017.5 17.1
2017-Nov-17 22:00S 36°10' E 061°46'0 0.1 1017.8 17.1
2017-Nov-17 18:00S 36°10' E 061°46'0 0.0 1019.2 17.2
2017-Nov-17 17:00S 36°10' E 061°46'0 0.2 1019.2 17.2
2017-Nov-17 15:00S 36°10' E 061°45'1 1.0 1018.6 17.2
2017-Nov-17 14:00S 36°10' E 061°44'0 0.5 1018.5 17.3
2017-Nov-17 13:00S 36°10' E 061°43'1 1.1 1018.5 17.4
2017-Nov-17 12:00S 36°09' E 061°42'0 0.0 1018.7 17.4
2017-Nov-17 11:00S 36°09' E 061°42'0 0.0 1019.0 17.3
2017-Nov-17 10:00S 36°09' E 061°42'2 0.4 1019.4 17.3
2017-Nov-17 05:00S 36°08' E 061°40'2 1.6 1021.4 16.8
2017-Nov-17 04:00S 36°09' E 061°38'0 0.0 1021.8 16.8
2017-Nov-17 03:00S 36°09' E 061°38'0 0.0 1021.2 16.8
2017-Nov-17 02:00S 36°09' E 061°38'0 0.5 1021.4 16.7
2017-Nov-17 01:00S 36°09' E 061°37'1 0.5 1021.3 16.7
2017-Nov-16 23:00S 36°09' E 061°36'1 1.1 1021.8 16.5
2017-Nov-16 22:00S 36°08' E 061°35'1 0.4 1022.2 16.5
2017-Nov-16 19:00S 36°08' E 061°34'0 0.5 1023.5 16.5
2017-Nov-16 18:00S 36°08' E 061°34'0 0.5 1023.4 16.5
2017-Nov-16 17:00S 36°08' E 061°34'0 0.5 1023.1 16.5
2017-Nov-16 16:00S 36°08' E 061°33'0 0.0 1022.8 16.5
2017-Nov-16 15:00S 36°08' E 061°33'1 0.6 1022.3 16.5
2017-Nov-16 14:00S 36°07' E 061°33'2 0.6 1022.2 16.6
2017-Nov-16 10:00S 36°07' E 061°30'3 0.7 1023.2 16.4
2017-Nov-16 06:00S 36°07' E 061°26'0 0.5 1025.5 16.3
2017-Nov-16 05:00S 36°07' E 061°26'0 0.5 1026.0 16.3
2017-Nov-16 04:00S 36°07' E 061°25'1 1.0 1026.1 16.4
2017-Nov-16 03:00S 36°07' E 061°24'0 0.5 1026.2 16.6
2017-Nov-16 02:00S 36°07' E 061°23'1 1.0 1026.2 16.7
2017-Nov-16 01:00S 36°07' E 061°22'0 0.5 1025.8 16.9
2017-Nov-16 00:00S 36°07' E 061°22'1 1.5 1025.5 16.9
2017-Nov-15 23:00S 36°07' E 061°20'1 1.5 1025.7 16.9
2017-Nov-15 22:00S 36°07' E 061°18'0 0.0 1025.7 17.0
2017-Nov-15 21:00S 36°07' E 061°18'1 0.3 1026.0 17.0
2017-Nov-15 18:00S 36°07' E 061°17'0 0.0 1026.8 17.2
2017-Nov-15 17:00S 36°07' E 061°17'1 1.1 1027.1 17.4
2017-Nov-15 16:00S 36°08' E 061°16'0 0.5 1026.6 17.8
2017-Nov-15 15:00S 36°08' E 061°15'0 0.0 1026.7 17.9
2017-Nov-15 14:00S 36°08' E 061°15'1 1.1 1026.4 18.1
2017-Nov-15 13:00S 36°08' E 061°14'1 1.1 1026.3 18.2
2017-Nov-15 12:00S 36°09' E 061°13'3 1.7 1026.4 18.1
2017-Nov-15 10:00S 36°10' E 061°08'0 0.0 1026.7 18.0
2017-Nov-15 06:00S 36°10' E 061°08'1 0.8 1027.0 17.0
2017-Nov-15 05:00S 36°10' E 061°08'0 0.0 1026.9 16.8
2017-Nov-15 04:00S 36°10' E 061°08'1 1.0 1026.6 16.8
2017-Nov-15 03:00S 36°10' E 061°07'2 1.9 1026.2 16.7
2017-Nov-15 02:00S 36°10' E 061°04'0 0.0 1025.6 16.7
2017-Nov-15 01:00S 36°10' E 061°04'1 0.6 1025.3 16.7
2017-Nov-15 00:00S 36°11' E 061°04'1 0.8 1024.6 16.7
2017-Nov-14 23:00S 36°10' E 061°04'1 1.5 1024.7 16.8
2017-Nov-14 22:00S 36°10' E 061°02'0 0.0 1024.6 16.8
2017-Nov-14 21:00S 36°10' E 061°02'0 0.0 1025.0 16.8
2017-Nov-14 19:00S 36°10' E 061°02'0 0.0 1024.8 16.8
2017-Nov-14 18:00S 36°10' E 061°02'1 0.6 1024.5 16.9
2017-Nov-14 17:00S 36°11' E 061°02'1 0.4 1024.5 16.9
2017-Nov-14 15:00S 36°11' E 061°01'1 0.4 1023.8 16.9
2017-Nov-14 13:00S 36°12' E 061°01'1 0.6 1023.2 17.0
2017-Nov-14 12:00S 36°13' E 061°01'3 3.4 1023.3 17.0
2017-Nov-14 11:00S 36°14' E 060°57'3 2.6 1023.0 17.0
2017-Nov-14 10:00S 36°13' E 060°59'3 0.7 1023.0 16.9
2017-Nov-14 06:00S 36°14' E 060°57'0 0.0 1023.0 16.7
2017-Nov-14 05:00S 36°14' E 060°57'0 0.5 1022.6 16.7
2017-Nov-14 04:00S 36°14' E 060°56'1 0.8 1022.5 16.6
2017-Nov-14 03:00S 36°15' E 060°56'0 0.0 1021.9 16.6
2017-Nov-14 01:00S 36°15' E 060°56'1 0.6 1021.8 16.6
2017-Nov-13 23:00S 36°16' E 060°55'0 0.0 1020.8 16.6
2017-Nov-13 22:00S 36°16' E 060°55'2 0.5 1021.1 16.6
2017-Nov-13 17:00S 36°17' E 060°52'0 0.0 1021.4 16.6
2017-Nov-13 16:00S 36°17' E 060°52'0 0.5 1020.7 16.6
2017-Nov-13 15:00S 36°17' E 060°52'0 0.0 1020.5 16.6
2017-Nov-13 14:00S 36°17' E 060°52'1 0.6 1020.4 16.5
2017-Nov-13 13:00S 36°17' E 060°52'0 0.5 1019.7 16.4
2017-Nov-13 12:00S 36°17' E 060°52'2 2.4 1019.4 16.4
2017-Nov-13 11:00S 36°20' E 060°52'2 1.8 1019.5 16.2
2017-Nov-13 10:00S 36°18' E 060°52'2 0.5 1019.8 16.1
2017-Nov-13 06:00S 36°20' E 060°52'0 0.5 1019.4 16.0
2017-Nov-13 05:00S 36°20' E 060°53'1 0.6 1018.9 16.0
2017-Nov-13 04:00S 36°20' E 060°53'1 0.6 1018.7 16.0
2017-Nov-13 03:00S 36°21' E 060°53'1 0.6 1018.3 16.0
2017-Nov-13 02:00S 36°22' E 060°53'1 0.8 1017.8 16.0
2017-Nov-13 01:00S 36°22' E 060°53'2 1.5 1017.3 16.0
2017-Nov-13 00:00S 36°23' E 060°55'0 0.0 1017.0 16.0
2017-Nov-12 23:00S 36°23' E 060°55'0 0.0 1016.8 16.0
2017-Nov-12 22:00S 36°23' E 060°55'1 0.3 1016.6 16.0
2017-Nov-12 19:00S 36°24' E 060°54'1 0.8 1016.8 16.1
2017-Nov-12 18:00S 36°25' E 060°55'0 0.5 1016.7 16.1
2017-Nov-12 17:00S 36°25' E 060°55'1 1.3 1016.8 16.1
2017-Nov-12 16:00S 36°26' E 060°56'1 0.8 1016.2 16.1
2017-Nov-12 15:00S 36°26' E 060°56'1 0.8 1015.6 16.0
2017-Nov-12 14:00S 36°26' E 060°56'1 0.8 1014.9 16.0
2017-Nov-12 13:00S 36°26' E 060°56'1 1.1 1014.4 16.1
2017-Nov-12 12:00S 36°27' E 060°58'4 4.3 1014.2 16.1
2017-Nov-12 11:00S 36°31' E 061°01'4 3.8 1014.1 16.1
2017-Nov-12 10:00S 36°28' E 060°58'5 1.0 1013.9 16.1
2017-Nov-12 05:00S 36°32' E 061°01'0 0.5 1012.8 16.1
2017-Nov-12 04:00S 36°32' E 061°01'1 0.6 1012.7 15.9
2017-Nov-12 02:00S 36°32' E 061°02'0 0.5 1011.7 15.3
2017-Nov-12 01:00S 36°32' E 061°01'2 0.8 1010.8 15.3
2017-Nov-11 23:00S 36°33' E 061°03'0 0.0 1009.7 15.4
2017-Nov-11 22:00S 36°33' E 061°03'4 1.3 1009.4 15.5
2017-Nov-11 19:00S 36°34' E 061°08'2 1.6 1008.6 15.4
2017-Nov-11 18:00S 36°35' E 061°10'2 0.9 1008.4 15.4
2017-Nov-11 16:00S 36°37' E 061°10'1 0.8 1007.6 15.5
2017-Nov-11 15:00S 36°37' E 061°11'1 0.6 1007.0 15.6
2017-Nov-11 14:00S 36°38' E 061°11'1 0.8 1006.1 15.6
2017-Nov-11 13:00S 36°38' E 061°11'1 0.6 1006.1 15.6
2017-Nov-11 12:00S 36°39' E 061°11'1 1.3 1006.3 15.6
2017-Nov-11 11:00S 36°40' E 061°11'0 0.0 1006.1 15.7
2017-Nov-11 06:00S 36°40' E 061°11'0 0.0 1007.0 15.7
2017-Nov-11 05:00S 36°40' E 061°11'0 0.0 1007.2 15.5
2017-Nov-11 04:00S 36°40' E 061°11'0 0.0 1006.9 15.3
2017-Nov-11 03:00S 36°40' E 061°11'0 0.5 1007.0 15.3
2017-Nov-11 02:00S 36°40' E 061°11'0 0.5 1006.8 15.3
2017-Nov-11 01:00S 36°40' E 061°12'1 0.6 1006.3 15.3
2017-Nov-11 00:00S 36°41' E 061°12'0 0.0 1006.1 15.3
2017-Nov-10 23:00S 36°41' E 061°12'1 0.8 1006.0 15.3
2017-Nov-10 22:00S 36°41' E 061°13'3 0.7 1006.0 15.3
2017-Nov-10 18:00S 36°44' E 061°11'0 0.5 1006.1 15.3
2017-Nov-10 17:00S 36°44' E 061°10'0 0.0 1006.6 15.3
2017-Nov-10 16:00S 36°44' E 061°10'1 1.1 1006.0 15.4
2017-Nov-10 15:00S 36°44' E 061°09'0 0.5 1006.0 15.4
2017-Nov-10 14:00S 36°44' E 061°08'1 1.1 1005.8 15.4
2017-Nov-10 13:00S 36°44' E 061°07'1 0.8 1005.7 15.4
2017-Nov-10 12:00S 36°43' E 061°08'4 4.2 1005.9 15.4
2017-Nov-10 11:00S 36°39' E 061°07'0 0.1 1006.3 15.4
2017-Nov-10 05:00S 36°39' E 061°08'1 1.1 1008.7 15.2
2017-Nov-10 04:00S 36°38' E 061°09'0 0.5 1009.4 15.2
2017-Nov-10 03:00S 36°38' E 061°10'1 0.6 1009.4 15.1
2017-Nov-10 02:00S 36°38' E 061°10'1 1.0 1009.4 15.1
2017-Nov-10 01:00S 36°38' E 061°11'0 0.5 1009.1 15.1
2017-Nov-10 00:00S 36°38' E 061°10'0 0.5 1009.3 15.1
2017-Nov-09 23:00S 36°38' E 061°11'1 0.8 1009.6 15.1
2017-Nov-09 22:00S 36°38' E 061°11'1 0.4 1010.1 15.1
2017-Nov-09 19:00S 36°39' E 061°13'   1011.6 15.1
Track history (hours):
 
Tides and Currents Weather Stations Pressure Air Temp Water Temp Dewpoint Dewpoint Depression Visibility Wind Speed Wind Dir Waves Ship Positions

Drifting buoy 17652

Last reported at 2017-Nov-19 19:00 UTC. Time now 2017-Nov-19 21:55 UTC.
Position S 36°25' E 062°04'.

Barometer 1010.1 mb
Water temperature 17.3 ° C

Date/timePositionNaut miles runAvg speedWind from/ knotsBaromVisibWave heightAir tempDewpointWater temp
2017-Nov-19 19:00S 36°25' E 062°04'0 0.5 1010.1 17.3
2017-Nov-19 18:00S 36°25' E 062°05'2 1.5 1010.3 17.4
2017-Nov-19 17:00S 36°23' E 062°04'1 0.6 1010.4 17.4
2017-Nov-19 15:00S 36°23' E 062°02'0 0.0 1010.1 17.4
2017-Nov-19 14:00S 36°23' E 062°02'1 0.8 1010.0 17.4
2017-Nov-19 13:00S 36°22' E 062°02'0 0.0 1009.9 17.4
2017-Nov-19 12:00S 36°22' E 062°02'3 3.4 1010.0 17.5
2017-Nov-19 11:00S 36°23' E 061°58'1 0.2 1010.1 17.5
2017-Nov-19 05:00S 36°23' E 061°56'2 1.6 1011.6 17.0
2017-Nov-19 04:00S 36°22' E 061°55'1 0.6 1011.5 17.0
2017-Nov-19 03:00S 36°22' E 061°55'2 1.5 1011.3 17.0
2017-Nov-19 02:00S 36°20' E 061°53'2 1.9 1011.2 17.0
2017-Nov-19 01:00S 36°19' E 061°53'0 0.0 1011.1 17.0
2017-Nov-18 23:00S 36°19' E 061°53'1 1.3 1011.8 17.1
2017-Nov-18 22:00S 36°17' E 061°52'2 0.5 1012.4 17.2
2017-Nov-18 18:00S 36°16' E 061°51'1 0.8 1015.3 17.4
2017-Nov-18 17:00S 36°15' E 061°50'0 0.0 1015.6 17.4
2017-Nov-18 16:00S 36°15' E 061°50'1 0.6 1015.7 17.4
2017-Nov-18 14:00S 36°14' E 061°50'1 1.1 1015.6 17.6
2017-Nov-18 13:00S 36°13' E 061°49'1 0.8 1016.0 17.6
2017-Nov-18 12:00S 36°13' E 061°49'0 0.0 1015.8 17.6
2017-Nov-18 11:00S 36°13' E 061°49'2 1.9 1016.1 17.6
2017-Nov-18 10:00S 36°11' E 061°49'0 0.1 1016.6 17.6
2017-Nov-18 06:00S 36°11' E 061°49'0 0.5 1017.6 17.2
2017-Nov-18 05:00S 36°11' E 061°49'1 0.8 1017.7 17.1
2017-Nov-18 04:00S 36°10' E 061°48'1 0.6 1017.8 17.1
2017-Nov-18 03:00S 36°11' E 061°48'0 0.0 1017.6 17.1
2017-Nov-18 02:00S 36°11' E 061°48'1 0.8 1017.7 17.1
2017-Nov-18 01:00S 36°10' E 061°47'0 0.0 1017.3 17.1
2017-Nov-18 00:00S 36°10' E 061°47'0 0.5 1017.3 17.1
2017-Nov-17 23:00S 36°10' E 061°47'1 0.8 1017.5 17.1
2017-Nov-17 22:00S 36°10' E 061°46'0 0.1 1017.8 17.1
2017-Nov-17 18:00S 36°10' E 061°46'0 0.0 1019.2 17.2
2017-Nov-17 17:00S 36°10' E 061°46'0 0.2 1019.2 17.2
2017-Nov-17 15:00S 36°10' E 061°45'1 1.0 1018.6 17.2
2017-Nov-17 14:00S 36°10' E 061°44'0 0.5 1018.5 17.3
2017-Nov-17 13:00S 36°10' E 061°43'1 1.1 1018.5 17.4
2017-Nov-17 12:00S 36°09' E 061°42'0 0.0 1018.7 17.4
2017-Nov-17 11:00S 36°09' E 061°42'0 0.0 1019.0 17.3
2017-Nov-17 10:00S 36°09' E 061°42'2 0.4 1019.4 17.3
2017-Nov-17 05:00S 36°08' E 061°40'2 1.6 1021.4 16.8
2017-Nov-17 04:00S 36°09' E 061°38'0 0.0 1021.8 16.8
2017-Nov-17 03:00S 36°09' E 061°38'0 0.0 1021.2 16.8
2017-Nov-17 02:00S 36°09' E 061°38'0 0.5 1021.4 16.7
2017-Nov-17 01:00S 36°09' E 061°37'1 0.5 1021.3 16.7
2017-Nov-16 23:00S 36°09' E 061°36'1 1.1 1021.8 16.5
2017-Nov-16 22:00S 36°08' E 061°35'1 0.4 1022.2 16.5
2017-Nov-16 19:00S 36°08' E 061°34'0 0.5 1023.5 16.5
2017-Nov-16 18:00S 36°08' E 061°34'0 0.5 1023.4 16.5
2017-Nov-16 17:00S 36°08' E 061°34'0 0.5 1023.1 16.5
2017-Nov-16 16:00S 36°08' E 061°33'0 0.0 1022.8 16.5
2017-Nov-16 15:00S 36°08' E 061°33'1 0.6 1022.3 16.5
2017-Nov-16 14:00S 36°07' E 061°33'2 0.6 1022.2 16.6
2017-Nov-16 10:00S 36°07' E 061°30'3 0.7 1023.2 16.4
2017-Nov-16 06:00S 36°07' E 061°26'0 0.5 1025.5 16.3
2017-Nov-16 05:00S 36°07' E 061°26'0 0.5 1026.0 16.3
2017-Nov-16 04:00S 36°07' E 061°25'1 1.0 1026.1 16.4
2017-Nov-16 03:00S 36°07' E 061°24'0 0.5 1026.2 16.6
2017-Nov-16 02:00S 36°07' E 061°23'1 1.0 1026.2 16.7
2017-Nov-16 01:00S 36°07' E 061°22'0 0.5 1025.8 16.9
2017-Nov-16 00:00S 36°07' E 061°22'1 1.5 1025.5 16.9
2017-Nov-15 23:00S 36°07' E 061°20'1 1.5 1025.7 16.9
2017-Nov-15 22:00S 36°07' E 061°18'0 0.0 1025.7 17.0
2017-Nov-15 21:00S 36°07' E 061°18'1 0.3 1026.0 17.0
2017-Nov-15 18:00S 36°07' E 061°17'0 0.0 1026.8 17.2
2017-Nov-15 17:00S 36°07' E 061°17'1 1.1 1027.1 17.4
2017-Nov-15 16:00S 36°08' E 061°16'0 0.5 1026.6 17.8
2017-Nov-15 15:00S 36°08' E 061°15'0 0.0 1026.7 17.9
2017-Nov-15 14:00S 36°08' E 061°15'1 1.1 1026.4 18.1
2017-Nov-15 13:00S 36°08' E 061°14'1 1.1 1026.3 18.2
2017-Nov-15 12:00S 36°09' E 061°13'3 1.7 1026.4 18.1
2017-Nov-15 10:00S 36°10' E 061°08'0 0.0 1026.7 18.0
2017-Nov-15 06:00S 36°10' E 061°08'1 0.8 1027.0 17.0
2017-Nov-15 05:00S 36°10' E 061°08'0 0.0 1026.9 16.8
2017-Nov-15 04:00S 36°10' E 061°08'1 1.0 1026.6 16.8
2017-Nov-15 03:00S 36°10' E 061°07'2 1.9 1026.2 16.7
2017-Nov-15 02:00S 36°10' E 061°04'0 0.0 1025.6 16.7
2017-Nov-15 01:00S 36°10' E 061°04'1 0.6 1025.3 16.7
2017-Nov-15 00:00S 36°11' E 061°04'1 0.8 1024.6 16.7
2017-Nov-14 23:00S 36°10' E 061°04'1 1.5 1024.7 16.8
2017-Nov-14 22:00S 36°10' E 061°02'0 0.0 1024.6 16.8
2017-Nov-14 21:00S 36°10' E 061°02'0 0.0 1025.0 16.8
2017-Nov-14 19:00S 36°10' E 061°02'0 0.0 1024.8 16.8
2017-Nov-14 18:00S 36°10' E 061°02'1 0.6 1024.5 16.9
2017-Nov-14 17:00S 36°11' E 061°02'1 0.4 1024.5 16.9
2017-Nov-14 15:00S 36°11' E 061°01'1 0.4 1023.8 16.9
2017-Nov-14 13:00S 36°12' E 061°01'1 0.6 1023.2 17.0
2017-Nov-14 12:00S 36°13' E 061°01'3 3.4 1023.3 17.0
2017-Nov-14 11:00S 36°14' E 060°57'3 2.6 1023.0 17.0
2017-Nov-14 10:00S 36°13' E 060°59'3 0.7 1023.0 16.9
2017-Nov-14 06:00S 36°14' E 060°57'0 0.0 1023.0 16.7
2017-Nov-14 05:00S 36°14' E 060°57'0 0.5 1022.6 16.7
2017-Nov-14 04:00S 36°14' E 060°56'1 0.8 1022.5 16.6
2017-Nov-14 03:00S 36°15' E 060°56'0 0.0 1021.9 16.6
2017-Nov-14 01:00S 36°15' E 060°56'1 0.6 1021.8 16.6
2017-Nov-13 23:00S 36°16' E 060°55'0 0.0 1020.8 16.6
2017-Nov-13 22:00S 36°16' E 060°55'2 0.5 1021.1 16.6
2017-Nov-13 17:00S 36°17' E 060°52'0 0.0 1021.4 16.6
2017-Nov-13 16:00S 36°17' E 060°52'0 0.5 1020.7 16.6
2017-Nov-13 15:00S 36°17' E 060°52'0 0.0 1020.5 16.6
2017-Nov-13 14:00S 36°17' E 060°52'1 0.6 1020.4 16.5
2017-Nov-13 13:00S 36°17' E 060°52'0 0.5 1019.7 16.4
2017-Nov-13 12:00S 36°17' E 060°52'2 2.4 1019.4 16.4
2017-Nov-13 11:00S 36°20' E 060°52'2 1.8 1019.5 16.2
2017-Nov-13 10:00S 36°18' E 060°52'2 0.5 1019.8 16.1
2017-Nov-13 06:00S 36°20' E 060°52'0 0.5 1019.4 16.0
2017-Nov-13 05:00S 36°20' E 060°53'1 0.6 1018.9 16.0
2017-Nov-13 04:00S 36°20' E 060°53'1 0.6 1018.7 16.0
2017-Nov-13 03:00S 36°21' E 060°53'1 0.6 1018.3 16.0
2017-Nov-13 02:00S 36°22' E 060°53'1 0.8 1017.8 16.0
2017-Nov-13 01:00S 36°22' E 060°53'2 1.5 1017.3 16.0
2017-Nov-13 00:00S 36°23' E 060°55'0 0.0 1017.0 16.0
2017-Nov-12 23:00S 36°23' E 060°55'0 0.0 1016.8 16.0
2017-Nov-12 22:00S 36°23' E 060°55'1 0.3 1016.6 16.0
2017-Nov-12 19:00S 36°24' E 060°54'1 0.8 1016.8 16.1
2017-Nov-12 18:00S 36°25' E 060°55'0 0.5 1016.7 16.1
2017-Nov-12 17:00S 36°25' E 060°55'1 1.3 1016.8 16.1
2017-Nov-12 16:00S 36°26' E 060°56'1 0.8 1016.2 16.1
2017-Nov-12 15:00S 36°26' E 060°56'1 0.8 1015.6 16.0
2017-Nov-12 14:00S 36°26' E 060°56'1 0.8 1014.9 16.0
2017-Nov-12 13:00S 36°26' E 060°56'1 1.1 1014.4 16.1
2017-Nov-12 12:00S 36°27' E 060°58'4 4.3 1014.2 16.1
2017-Nov-12 11:00S 36°31' E 061°01'4 3.8 1014.1 16.1
2017-Nov-12 10:00S 36°28' E 060°58'5 1.0 1013.9 16.1
2017-Nov-12 05:00S 36°32' E 061°01'0 0.5 1012.8 16.1
2017-Nov-12 04:00S 36°32' E 061°01'1 0.6 1012.7 15.9
2017-Nov-12 02:00S 36°32' E 061°02'0 0.5 1011.7 15.3
2017-Nov-12 01:00S 36°32' E 061°01'2 0.8 1010.8 15.3
2017-Nov-11 23:00S 36°33' E 061°03'0 0.0 1009.7 15.4
2017-Nov-11 22:00S 36°33' E 061°03'4 1.3 1009.4 15.5
2017-Nov-11 19:00S 36°34' E 061°08'2 1.6 1008.6 15.4
2017-Nov-11 18:00S 36°35' E 061°10'2 0.9 1008.4 15.4
2017-Nov-11 16:00S 36°37' E 061°10'1 0.8 1007.6 15.5
2017-Nov-11 15:00S 36°37' E 061°11'1 0.6 1007.0 15.6
2017-Nov-11 14:00S 36°38' E 061°11'1 0.8 1006.1 15.6
2017-Nov-11 13:00S 36°38' E 061°11'1 0.6 1006.1 15.6
2017-Nov-11 12:00S 36°39' E 061°11'1 1.3 1006.3 15.6
2017-Nov-11 11:00S 36°40' E 061°11'0 0.0 1006.1 15.7
2017-Nov-11 06:00S 36°40' E 061°11'0 0.0 1007.0 15.7
2017-Nov-11 05:00S 36°40' E 061°11'0 0.0 1007.2 15.5
2017-Nov-11 04:00S 36°40' E 061°11'0 0.0 1006.9 15.3
2017-Nov-11 03:00S 36°40' E 061°11'0 0.5 1007.0 15.3
2017-Nov-11 02:00S 36°40' E 061°11'0 0.5 1006.8 15.3
2017-Nov-11 01:00S 36°40' E 061°12'1 0.6 1006.3 15.3
2017-Nov-11 00:00S 36°41' E 061°12'0 0.0 1006.1 15.3
2017-Nov-10 23:00S 36°41' E 061°12'1 0.8 1006.0 15.3
2017-Nov-10 22:00S 36°41' E 061°13'3 0.7 1006.0 15.3
2017-Nov-10 18:00S 36°44' E 061°11'0 0.5 1006.1 15.3
2017-Nov-10 17:00S 36°44' E 061°10'0 0.0 1006.6 15.3
2017-Nov-10 16:00S 36°44' E 061°10'1 1.1 1006.0 15.4
2017-Nov-10 15:00S 36°44' E 061°09'0 0.5 1006.0 15.4
2017-Nov-10 14:00S 36°44' E 061°08'1 1.1 1005.8 15.4
2017-Nov-10 13:00S 36°44' E 061°07'1 0.8 1005.7 15.4
2017-Nov-10 12:00S 36°43' E 061°08'4 4.2 1005.9 15.4
2017-Nov-10 11:00S 36°39' E 061°07'0 0.1 1006.3 15.4
2017-Nov-10 05:00S 36°39' E 061°08'1 1.1 1008.7 15.2
2017-Nov-10 04:00S 36°38' E 061°09'0 0.5 1009.4 15.2
2017-Nov-10 03:00S 36°38' E 061°10'1 0.6 1009.4 15.1
2017-Nov-10 02:00S 36°38' E 061°10'1 1.0 1009.4 15.1
2017-Nov-10 01:00S 36°38' E 061°11'0 0.5 1009.1 15.1
2017-Nov-10 00:00S 36°38' E 061°10'0 0.5 1009.3 15.1
2017-Nov-09 23:00S 36°38' E 061°11'1 0.8 1009.6 15.1
2017-Nov-09 22:00S 36°38' E 061°11'1 0.4 1010.1 15.1
2017-Nov-09 19:00S 36°39' E 061°13'   1011.6 15.1

Dump ship's entire track history